Etusivu
METAR-TAF:

METAR-TAF

Lentoasemat :

Ortonville Municipal Airport (Martinson Field)

Ortonville, Minnesota, Yhdysvallat

Leveyspiiri: 45-18-20N, Pituuspiiri: 096-25-28W, korkeus merenpinnasta: 335 m

Tämänhetkinen sää

Tämä raportti tehtiin 22 minuuttia sitten, kello 02.16 UTC
Tuuli 7 kn lännestä/luoteesta
Lämpötila 4°C
Kosteus 93%
Ilmanpaine 1005 hPa
Näkyvyys: 16.1 km
Hajanaisia pilviä 6000 ft:n korkeudessa

METAR: KVVV 190216Z AUTO 29007KT 10SM SCT060 04/03 A2969 RMK AO2

Aika: 20:38 (02:38 UTC)


TAF: puuttuu

Säähavainnot ja -ennusteet yli 4000 lentoasemalta (METAR- ja TAF-raportit).

Käytössä olevat sääasemat on merkitty karttaan keltaisilla ja punaisilla pisteillä.

Aseta hiiri pisteen päälle nähdäksesi sääaseman nimen.

Klikkaa sitten nähdäksesi säähavainnot ja -ennusteet.

Kartan vaihtaminen: klikkaa mustalla rastilla varustettuja vihreitä pisteitä, niin voit zoomata sisään; viivalla varustettua vihreää pistettä, niin voit zoomata ulos tai vihreitä nuolia, niin pääset viereisille kartoille.


METAR-TAF: